Terminal Aerodrome Forecast
Issued by NWS Duluth, MN

Home | Current Version | Previous Version | Text Only | Print | Product List | Glossary On
Versions: 1 2 3 4 5 6 7 8 9 10 11 12 13 14 15 16
769
FTUS43 KDLH 302157 AAC
TAFDLH
TAF AMD
KDLH 302157Z 3022/0118 08015G28KT P6SM FEW050 SCT100
     FM010200 08007KT P6SM SCT080
     FM011400 09010KT P6SM SCT040=

USA.gov is the U.S. government's official web portal to all federal, state and local government web resources and services.